Time;durP1;ratioP1;P1;durP2;ratioP2;P2;SDS_P1;SDS_P2;PMS_P1;PMS_P2;Temp;Humidity;BMP_temperature;BMP_pressure;BME280_temperature;BME280_humidity;BME280_pressure;Samples;Min_cycle;Max_cycle;Signal;HPM_P1;HPM_P2
2021/11/13 00:00:22;;;;;;;30.23;19.80;;;;;;;3.64;100.00;101141.84;5010839;28;20105;-71
2021/11/13 00:02:47;;;;;;;28.42;18.02;;;;;;;4.20;100.00;101208.19;4993953;28;20037;-71
2021/11/13 00:05:13;;;;;;;24.70;18.23;;;;;;;4.25;99.24;101212.72;5011418;28;20476;-70
2021/11/13 00:07:39;;;;;;;31.60;19.08;;;;;;;4.28;98.96;101202.75;5011531;28;20080;-70
2021/11/13 00:10:11;;;;;;;31.25;18.90;;;;;;;4.17;99.07;101191.72;5011344;28;20074;-70
2021/11/13 00:12:38;;;;;;;26.13;17.63;;;;;;;4.13;98.72;101182.94;5011652;28;20105;-70
2021/11/13 00:15:06;;;;;;;30.10;18.75;;;;;;;4.35;98.42;101212.66;5011474;28;20389;-70
2021/11/13 00:17:31;;;;;;;26.23;18.02;;;;;;;4.23;98.04;101212.63;5011221;28;20029;-70
2021/11/13 00:19:57;;;;;;;30.75;18.33;;;;;;;3.99;98.24;101196.38;5015330;28;20046;-70
2021/11/13 00:22:22;;;;;;;28.48;18.55;;;;;;;3.94;98.21;101190.91;5031442;28;20030;-73
2021/11/13 00:24:48;;;;;;;26.63;17.52;;;;;;;4.02;97.51;101200.00;5030999;28;20022;-70
2021/11/13 00:27:13;;;;;;;34.55;18.45;;;;;;;4.25;96.77;101211.09;5031098;28;20108;-70
2021/11/13 00:29:39;;;;;;;27.13;18.33;;;;;;;4.26;96.36;101200.09;5031020;28;20036;-71
2021/11/13 00:32:05;;;;;;;25.75;16.13;;;;;;;3.25;97.08;101048.69;5031103;28;20025;-69
2021/11/13 00:34:31;;;;;;;26.85;16.83;;;;;;;4.10;96.21;101185.28;5030723;28;20409;-70
2021/11/13 00:36:56;;;;;;;28.80;16.90;;;;;;;4.31;96.22;101208.09;5030976;28;20036;-71
2021/11/13 00:39:22;;;;;;;35.95;17.55;;;;;;;4.14;96.28;101184.72;5031073;28;20108;-70
2021/11/13 00:41:48;;;;;;;31.80;17.42;;;;;;;4.17;96.68;101176.41;5031194;28;20122;-70
2021/11/13 00:44:14;;;;;;;51.78;18.33;;;;;;;4.11;96.74;101155.50;5031135;28;20058;-70
2021/11/13 00:46:41;;;;;;;50.58;19.60;;;;;;;4.43;97.50;101213.22;5030796;28;20029;-69
2021/11/13 00:49:06;;;;;;;44.10;19.27;;;;;;;4.28;97.64;101190.84;5030667;28;20025;-70
2021/11/13 00:51:36;;;;;;;61.70;18.50;;;;;;;4.30;98.18;101217.44;5031056;28;20493;-70
2021/11/13 00:54:03;;;;;;;41.58;18.48;;;;;;;4.29;98.45;101213.09;5030881;28;20403;-69
2021/11/13 00:56:29;;;;;;;44.67;17.58;;;;;;;3.65;97.18;101115.53;5030628;28;20076;-69
2021/11/13 00:58:54;;;;;;;58.42;19.35;;;;;;;3.94;97.20;101187.44;5030764;28;20029;-70
2021/11/13 01:01:20;;;;;;;61.28;18.25;;;;;;;3.93;98.06;101212.13;5030813;28;20084;-70
2021/11/13 01:03:45;;;;;;;70.28;19.42;;;;;;;3.76;99.27;101210.81;5031059;28;20406;-70
2021/11/13 01:06:11;;;;;;;85.65;19.48;;;;;;;2.75;100.00;101044.06;5030928;28;20037;-70
2021/11/13 01:08:37;;;;;;;54.00;19.83;;;;;;;3.60;100.00;101200.22;5030582;28;20040;-70
2021/11/13 01:11:04;;;;;;;75.55;19.77;;;;;;;3.65;100.00;101210.03;5030803;28;20031;-70
2021/11/13 01:13:30;;;;;;;52.63;18.77;;;;;;;3.58;100.00;101192.44;5034221;28;20045;-69
2021/11/13 01:15:55;;;;;;;82.40;19.65;;;;;;;3.56;100.00;101197.44;5033968;28;20026;-70
2021/11/13 01:18:22;;;;;;;68.40;19.90;;;;;;;3.72;100.00;101211.38;5034273;28;20030;-70
2021/11/13 01:20:48;;;;;;;70.63;19.95;;;;;;;3.31;100.00;101133.38;5033977;28;20435;-70
2021/11/13 01:23:14;;;;;;;75.35;20.20;;;;;;;3.75;100.00;101192.84;5033972;28;20029;-70
2021/11/13 01:25:39;;;;;;;81.35;19.88;;;;;;;3.84;100.00;101207.19;5015578;28;20047;-70
2021/11/13 01:28:05;;;;;;;68.47;20.55;;;;;;;3.80;100.00;101209.38;5033864;28;20479;-69
2021/11/13 01:30:30;;;;;;;112.25;21.15;;;;;;;3.51;100.00;101202.94;5033717;28;20026;-69
2021/11/13 01:32:56;;;;;;;74.53;20.67;;;;;;;3.54;100.00;101204.09;5033944;28;20033;-70
2021/11/13 01:35:22;;;;;;;64.68;20.15;;;;;;;3.49;100.00;101202.84;5033941;28;20095;-70
2021/11/13 01:37:48;;;;;;;101.88;21.55;;;;;;;3.62;100.00;101203.78;5033947;28;20542;-69
2021/11/13 01:40:18;;;;;;;77.57;21.45;;;;;;;3.76;100.00;101208.25;5033882;28;20029;-68
2021/11/13 01:42:44;;;;;;;89.78;20.35;;;;;;;3.80;100.00;101205.19;5033609;28;20102;-70
2021/11/13 01:45:12;;;;;;;90.18;22.33;;;;;;;3.70;100.00;101183.16;5033538;28;20030;-70
2021/11/13 01:47:38;;;;;;;125.05;22.90;;;;;;;3.85;100.00;101205.53;5032882;28;20474;-70
2021/11/13 01:50:14;;;;;;;147.25;23.52;;;;;;;3.62;100.00;101209.78;5017899;28;20041;-69
2021/11/13 01:52:40;;;;;;;157.57;24.63;;;;;;;3.59;100.00;101209.56;5015320;28;20030;-69
2021/11/13 01:55:06;;;;;;;164.82;25.30;;;;;;;3.27;100.00;101139.03;5013786;28;20025;-69
2021/11/13 01:57:44;;;;;;;179.15;23.88;;;;;;;3.73;100.00;101208.91;5013536;28;20396;-68
2021/11/13 02:00:16;;;;;;;125.05;22.05;;;;;;;3.76;100.00;101204.84;5013482;28;20440;-70
2021/11/13 02:02:42;;;;;;;249.73;26.98;;;;;;;3.71;100.00;101184.97;5013680;28;20037;-69
2021/11/13 02:05:08;;;;;;;151.70;25.83;;;;;;;3.71;100.00;101189.16;5013677;28;20034;-70
2021/11/13 02:07:34;;;;;;;118.93;23.83;;;;;;;3.81;100.00;101204.38;5013331;28;20045;-70
2021/11/13 02:09:59;;;;;;;172.73;22.85;;;;;;;3.94;100.00;101215.53;5013379;28;20030;-70
2021/11/13 02:12:24;;;;;;;221.10;25.95;;;;;;;3.87;100.00;101212.53;5013415;28;20061;-69
2021/11/13 02:14:50;;;;;;;179.38;26.13;;;;;;;3.36;100.00;101128.63;5013818;28;20026;-70
2021/11/13 02:17:15;;;;;;;177.50;25.80;;;;;;;3.65;100.00;101188.69;5013317;28;20025;-70
2021/11/13 02:19:41;;;;;;;196.18;26.55;;;;;;;3.36;100.00;101190.78;5013174;28;20034;-70
2021/11/13 02:22:06;;;;;;;142.07;24.92;;;;;;;3.11;100.00;101207.50;5013211;28;20057;-69
2021/11/13 02:24:32;;;;;;;117.72;24.52;;;;;;;3.14;100.00;101200.09;5012447;28;20108;-70
2021/11/13 02:26:57;;;;;;;101.65;24.38;;;;;;;3.30;100.00;101200.53;5012741;28;20395;-70
2021/11/13 02:29:23;;;;;;;97.93;24.23;;;;;;;2.80;100.00;101198.31;5012970;28;20088;-70
2021/11/13 02:31:49;;;;;;;114.93;22.60;;;;;;;1.96;100.00;101099.00;5012937;28;20030;-70
2021/11/13 02:34:15;;;;;;;110.70;23.75;;;;;;;2.06;100.00;101121.03;5013153;28;20100;-70
2021/11/13 02:36:42;;;;;;;128.60;24.90;;;;;;;2.77;100.00;101215.00;5012981;28;20054;-70
2021/11/13 02:39:10;;;;;;;128.50;25.10;;;;;;;2.94;100.00;101212.19;5012959;28;20041;-70
2021/11/13 02:41:37;;;;;;;129.73;24.77;;;;;;;2.77;100.00;101195.53;5012505;28;20030;-70
2021/11/13 02:44:04;;;;;;;114.95;26.02;;;;;;;2.94;100.00;101222.38;5012992;28;20087;-70
2021/11/13 02:46:32;;;;;;;113.50;23.95;;;;;;;2.79;100.00;101204.19;5012927;28;20030;-70
2021/11/13 02:48:57;;;;;;;122.70;25.15;;;;;;;2.90;100.00;101192.28;5012553;28;20042;-70
2021/11/13 02:51:23;;;;;;;138.90;24.83;;;;;;;2.95;100.00;101193.53;5012720;28;20087;-70
2021/11/13 02:53:52;;;;;;;121.10;24.00;;;;;;;3.07;100.00;101214.91;5012378;28;20113;-70
2021/11/13 02:56:18;;;;;;;135.18;24.17;;;;;;;3.04;100.00;101219.78;5012588;28;20034;-70
2021/11/13 02:58:44;;;;;;;155.75;25.65;;;;;;;3.00;100.00;101221.97;5012452;28;20026;-70
2021/11/13 03:01:13;;;;;;;136.85;24.17;;;;;;;2.79;100.00;101205.84;5012315;28;20029;-70
2021/11/13 03:03:39;;;;;;;176.10;25.63;;;;;;;2.90;100.00;101222.88;5012423;28;20492;-70
2021/11/13 03:06:13;;;;;;;156.55;25.10;;;;;;;2.95;100.00;101198.63;5012513;28;20038;-70
2021/11/13 03:08:41;;;;;;;170.75;26.13;;;;;;;3.26;100.00;101223.13;5012269;28;20432;-70
2021/11/13 03:11:09;;;;;;;158.48;27.33;;;;;;;2.76;100.00;101163.13;5012819;28;20104;-70
2021/11/13 03:13:38;;;;;;;167.35;27.88;;;;;;;2.85;100.00;101193.56;5012760;28;20496;-68
2021/11/13 03:16:06;;;;;;;195.50;28.23;;;;;;;3.13;100.00;101229.81;5012476;28;20021;-70
2021/11/13 03:18:32;;;;;;;178.35;26.90;;;;;;;3.07;100.00;101191.94;5012349;28;20038;-70
2021/11/13 03:20:58;;;;;;;154.23;24.08;;;;;;;3.19;100.00;101198.78;5012181;28;20049;-70
2021/11/13 03:23:25;;;;;;;154.38;28.02;;;;;;;3.54;100.00;101233.84;5011165;28;20029;-70
2021/11/13 03:26:14;;;;;;;151.35;25.75;;;;;;;3.70;100.00;101234.25;5011996;28;20030;-70
2021/11/13 03:28:42;;;;;;;;;;;;;;;3.62;100.00;101234.44;5011338;28;20038;-70
2021/11/13 03:31:07;;;;;;;149.15;24.80;;;;;;;3.17;100.00;101152.75;5011896;28;19913;-70
2021/11/13 03:33:38;;;;;;;145.90;23.15;;;;;;;3.12;100.00;101135.31;5011914;28;20030;-70
2021/11/13 03:36:05;;;;;;;157.52;24.77;;;;;;;3.00;100.00;101118.25;5011915;28;20472;-70
2021/11/13 03:38:32;;;;;;;138.50;23.55;;;;;;;3.57;100.00;101234.06;5012101;28;20029;-69
2021/11/13 03:40:58;;;;;;;149.88;23.77;;;;;;;3.19;100.00;101225.19;5012011;28;20029;-70
2021/11/13 03:43:24;;;;;;;148.25;23.60;;;;;;;3.45;100.00;101236.56;5011715;28;20034;-69
2021/11/13 03:45:51;;;;;;;144.85;22.17;;;;;;;3.36;100.00;101230.72;5011931;28;20136;-69
2021/11/13 03:48:17;;;;;;;134.95;21.02;;;;;;;3.46;100.00;101227.25;5011339;28;20034;-70
2021/11/13 03:50:43;;;;;;;146.73;22.23;;;;;;;3.43;100.00;101247.41;5011926;28;20065;-69
2021/11/13 03:53:09;;;;;;;129.05;23.08;;;;;;;3.43;100.00;101234.63;5011718;28;20029;-69
2021/11/13 03:55:35;;;;;;;107.68;21.38;;;;;;;3.12;100.00;101169.34;5011600;28;20026;-70
2021/11/13 03:58:01;;;;;;;126.47;20.58;;;;;;;3.48;100.00;101235.91;5011594;28;20040;-69
2021/11/13 04:00:29;;;;;;;113.45;20.38;;;;;;;3.50;100.00;101242.00;5011510;28;20511;-69
2021/11/13 04:02:54;;;;;;;170.00;22.38;;;;;;;3.29;100.00;101223.34;5011653;28;20041;-70
2021/11/13 04:05:21;;;;;;;100.78;20.05;;;;;;;3.02;100.00;101154.09;5011801;28;20034;-70
2021/11/13 04:07:48;;;;;;;118.35;20.23;;;;;;;2.97;100.00;101137.56;4989451;28;20081;-69
2021/11/13 04:10:15;;;;;;;124.68;21.08;;;;;;;3.62;100.00;101263.41;4989646;28;20548;-70
2021/11/13 04:12:41;;;;;;;122.60;19.73;;;;;;;3.35;100.00;101224.75;4989515;28;20062;-69
2021/11/13 04:15:08;;;;;;;144.27;20.02;;;;;;;2.53;100.00;101093.38;4989529;28;20544;-70
2021/11/13 04:17:34;;;;;;;105.53;21.17;;;;;;;3.04;100.00;101156.00;4989519;28;20056;-70
2021/11/13 04:20:00;;;;;;;107.65;19.67;;;;;;;3.37;100.00;101252.94;4989330;28;20133;-70
2021/11/13 04:22:26;;;;;;;125.47;20.70;;;;;;;3.22;100.00;101257.72;4989607;28;20070;-69
2021/11/13 04:24:51;;;;;;;89.18;20.10;;;;;;;3.05;100.00;101224.13;4989583;28;20573;-70
2021/11/13 04:27:18;;;;;;;118.25;21.63;;;;;;;3.06;100.00;101250.50;5004943;28;20038;-70
2021/11/13 04:29:45;;;;;;;106.22;20.83;;;;;;;3.15;100.00;101258.00;5008878;28;20061;-70
2021/11/13 04:32:11;;;;;;;89.63;22.48;;;;;;;3.19;100.00;101263.47;5008917;28;20439;-67
2021/11/13 04:34:46;;;;;;;100.50;21.73;;;;;;;3.37;100.00;101248.72;5008923;28;20034;-70
2021/11/13 04:37:17;;;;;;;73.25;22.92;;;;;;;3.63;100.00;101262.63;5009060;28;20034;-69
2021/11/13 04:39:43;;;;;;;104.45;23.52;;;;;;;3.79;100.00;101258.69;5008945;28;20041;-70
2021/11/13 04:42:10;;;;;;;83.90;21.77;;;;;;;3.96;100.00;101260.00;5009082;28;20045;-70
2021/11/13 04:44:35;;;;;;;73.47;21.33;;;;;;;4.06;100.00;101254.78;5009430;28;20084;-69
2021/11/13 04:47:01;;;;;;;68.38;20.45;;;;;;;3.97;100.00;101224.34;5013030;28;20045;-70
2021/11/13 04:49:26;;;;;;;106.93;22.40;;;;;;;4.17;100.00;101259.06;5015154;28;20100;-69
2021/11/13 04:51:52;;;;;;;73.82;21.75;;;;;;;4.27;100.00;101254.66;5014861;28;20488;-70
2021/11/13 04:54:17;;;;;;;77.75;24.35;;;;;;;4.30;100.00;101259.97;5014820;28;20030;-70
2021/11/13 04:56:43;;;;;;;70.63;22.73;;;;;;;4.23;100.00;101243.31;5014649;28;20037;-71
2021/11/13 04:59:08;;;;;;;57.17;23.98;;;;;;;4.42;100.00;101265.13;5014707;28;20117;-69
2021/11/13 05:01:34;;;;;;;66.40;31.17;;;;;;;4.38;100.00;101264.88;5015074;28;20676;-69
2021/11/13 05:03:59;;;;;;;61.75;23.70;;;;;;;4.45;100.00;101273.00;5014792;28;20037;-69
2021/11/13 05:06:28;;;;;;;63.00;26.05;;;;;;;4.43;100.00;101272.91;5014800;28;20041;-69
2021/11/13 05:08:53;;;;;;;70.70;23.02;;;;;;;4.32;100.00;101273.78;5014497;28;20077;-70
2021/11/13 05:11:19;;;;;;;73.90;22.80;;;;;;;4.19;100.00;101270.28;5014442;28;20030;-70
2021/11/13 05:13:44;;;;;;;90.45;22.15;;;;;;;3.99;100.00;101280.69;5014679;28;20030;-69
2021/11/13 05:16:10;;;;;;;64.15;22.40;;;;;;;3.89;100.00;101284.19;5014911;28;20041;-69
2021/11/13 05:18:35;;;;;;;76.63;22.50;;;;;;;3.81;100.00;101283.56;5014605;28;20034;-70
2021/11/13 05:21:00;;;;;;;54.20;21.80;;;;;;;3.42;100.00;101202.25;5014377;28;20125;-70
2021/11/13 05:23:26;;;;;;;59.78;22.58;;;;;;;3.32;100.00;101164.91;5014323;28;20510;-72
2021/11/13 05:25:52;;;;;;;70.43;22.67;;;;;;;3.89;100.00;101304.63;5014642;28;20450;-70
2021/11/13 05:28:17;;;;;;;54.00;22.92;;;;;;;3.77;100.00;101283.25;5014015;28;20101;-70
2021/11/13 05:30:42;;;;;;;59.80;22.55;;;;;;;3.94;100.00;101303.31;5014463;28;20507;-70
2021/11/13 05:33:08;;;;;;;53.97;22.30;;;;;;;3.65;100.00;101240.66;5029409;28;20038;-70
2021/11/13 05:35:33;;;;;;;60.75;22.42;;;;;;;4.16;100.00;101318.63;5014092;28;20109;-70
2021/11/13 05:37:59;;;;;;;53.22;22.13;;;;;;;3.86;100.00;101307.84;5014195;28;20097;-70
2021/11/13 05:40:24;;;;;;;53.95;24.30;;;;;;;3.86;100.00;101304.38;5013920;28;20391;-70
2021/11/13 05:42:51;;;;;;;48.38;22.88;;;;;;;4.05;100.00;101311.81;5013815;28;20061;-70
2021/11/13 05:45:17;;;;;;;53.03;21.90;;;;;;;4.22;100.00;101320.75;5013981;28;20034;-70
2021/11/13 05:47:42;;;;;;;42.53;22.05;;;;;;;4.32;100.00;101330.00;5014045;28;20032;-70
2021/11/13 05:50:12;;;;;;;39.28;19.30;;;;;;;4.21;100.00;101321.50;5013916;28;20029;-69
2021/11/13 05:52:38;;;;;;;35.40;17.38;;;;;;;4.20;100.00;101324.88;5013818;28;20412;-69
2021/11/13 05:55:04;;;;;;;27.83;15.00;;;;;;;3.80;100.00;101232.38;5013655;28;20124;-70
2021/11/13 05:57:30;;;;;;;30.60;15.80;;;;;;;4.47;100.00;101332.84;5013019;28;20026;-69
2021/11/13 05:59:55;;;;;;;30.58;14.95;;;;;;;4.49;100.00;101331.28;5013445;28;20029;-69
2021/11/13 06:02:21;;;;;;;29.25;15.20;;;;;;;4.57;100.00;101327.63;5028925;28;20026;-70
2021/11/13 06:04:47;;;;;;;27.58;15.85;;;;;;;4.43;100.00;101305.25;5013728;28;20034;-70
2021/11/13 06:07:12;;;;;;;25.30;14.85;;;;;;;4.67;100.00;101324.09;5013513;28;20437;-70
2021/11/13 06:09:37;;;;;;;26.08;14.70;;;;;;;4.71;100.00;101326.13;5011511;28;20037;-70
2021/11/13 06:12:03;;;;;;;35.92;19.10;;;;;;;4.77;100.00;101330.78;5013395;28;20049;-70
2021/11/13 06:14:29;;;;;;;32.60;22.00;;;;;;;4.79;100.00;101336.91;5013302;28;20485;-70
2021/11/13 06:16:54;;;;;;;36.45;23.90;;;;;;;4.86;100.00;101334.03;5013810;28;20029;-72
2021/11/13 06:19:20;;;;;;;28.00;17.05;;;;;;;4.68;100.00;101337.00;5013721;28;20050;-70
2021/11/13 06:21:45;;;;;;;28.05;16.75;;;;;;;4.70;100.00;101327.78;5027535;28;20089;-70
2021/11/13 06:24:11;;;;;;;21.60;15.75;;;;;;;4.64;100.00;101326.44;5013137;28;20080;-69
2021/11/13 06:26:36;;;;;;;47.65;16.20;;;;;;;4.88;100.00;101346.94;5013020;28;20083;-69
2021/11/13 06:29:02;;;;;;;27.05;14.50;;;;;;;4.92;100.00;101339.63;5013359;28;20030;-70
2021/11/13 06:31:28;;;;;;;24.60;14.25;;;;;;;4.95;100.00;101357.75;5013380;28;20491;-70
2021/11/13 06:33:53;;;;;;;26.05;15.48;;;;;;;4.74;100.00;101344.25;5013152;28;20503;-69
2021/11/13 06:36:19;;;;;;;20.55;13.20;;;;;;;4.58;100.00;101343.88;5013093;28;20105;-70
2021/11/13 06:38:44;;;;;;;21.05;14.13;;;;;;;4.28;100.00;101321.22;5012925;28;20025;-69
2021/11/13 06:41:10;;;;;;;22.10;14.60;;;;;;;4.45;100.00;101358.28;5012895;28;20069;-69
2021/11/13 06:43:35;;;;;;;28.55;15.23;;;;;;;4.52;100.00;101344.28;5011857;28;20033;-70
2021/11/13 06:46:01;;;;;;;24.70;15.60;;;;;;;4.64;100.00;101350.34;5012900;28;20052;-70
2021/11/13 06:48:27;;;;;;;24.10;15.90;;;;;;;4.62;100.00;101349.34;5013099;28;20038;-70
2021/11/13 06:50:52;;;;;;;28.65;16.58;;;;;;;4.46;100.00;101356.63;5012657;28;20499;-70
2021/11/13 06:53:20;;;;;;;23.55;14.63;;;;;;;4.29;100.00;101342.56;5012609;28;20033;-69
2021/11/13 06:55:47;;;;;;;20.63;15.07;;;;;;;4.54;100.00;101351.31;5012470;28;20488;-70
2021/11/13 06:58:12;;;;;;;21.75;14.88;;;;;;;4.71;100.00;101351.72;5012725;28;20120;-69
2021/11/13 07:00:38;;;;;;;20.67;15.07;;;;;;;4.79;100.00;101357.38;5012933;28;20117;-69
2021/11/13 07:03:04;;;;;;;22.83;15.80;;;;;;;4.87;100.00;101361.38;5012727;28;20030;-70
2021/11/13 07:05:30;;;;;;;21.25;15.25;;;;;;;4.61;100.00;101324.53;5012521;28;20042;-69
2021/11/13 07:07:56;;;;;;;25.38;17.40;;;;;;;4.65;100.00;101351.25;5012394;28;20496;-70
2021/11/13 07:10:22;;;;;;;59.65;43.88;;;;;;;4.05;100.00;101248.81;5012075;28;20030;-70
2021/11/13 07:12:48;;;;;;;39.17;27.17;;;;;;;4.38;100.00;101275.09;5012265;28;20037;-69
2021/11/13 07:15:17;;;;;;;26.75;18.73;;;;;;;4.12;100.00;101249.28;5012487;28;20038;-70
2021/11/13 07:17:42;;;;;;;31.80;21.08;;;;;;;4.57;100.00;101337.84;5012623;28;20092;-69
2021/11/13 07:20:09;;;;;;;33.20;24.10;;;;;;;4.55;100.00;101344.53;5012037;28;20045;-68
2021/11/13 07:22:36;;;;;;;40.63;26.08;;;;;;;4.63;100.00;101351.09;5013071;28;20034;-70
2021/11/13 07:25:02;;;;;;;34.53;21.77;;;;;;;4.73;100.00;101339.91;5014338;28;20455;-69
2021/11/13 07:27:28;;;;;;;27.48;20.73;;;;;;;4.91;100.00;101339.47;5023779;28;20156;-70
2021/11/13 07:30:03;;;;;;;28.70;22.70;;;;;;;4.98;100.00;101334.03;5030768;28;20021;-70
2021/11/13 07:32:30;;;;;;;29.55;21.08;;;;;;;5.10;100.00;101334.06;5020692;28;20049;-70
2021/11/13 07:34:55;;;;;;;27.08;20.10;;;;;;;5.00;100.00;101330.81;5022564;28;20026;-68
2021/11/13 07:37:21;;;;;;;48.97;32.42;;;;;;;4.80;100.00;101306.31;5025760;28;20098;-68
2021/11/13 07:39:47;;;;;;;31.73;22.27;;;;;;;4.97;100.00;101340.84;5027845;28;20160;-69
2021/11/13 07:42:12;;;;;;;32.65;22.85;;;;;;;5.09;100.00;101338.28;5025024;28;20026;-70
2021/11/13 07:44:38;;;;;;;39.70;28.90;;;;;;;5.12;100.00;101345.28;5021750;28;20037;-68
2021/11/13 07:47:03;;;;;;;36.00;28.10;;;;;;;5.03;100.00;101319.91;5041209;28;20044;-69
2021/11/13 07:49:29;;;;;;;31.02;20.90;;;;;;;4.92;100.00;101319.16;5026671;28;20025;-70
2021/11/13 07:51:55;;;;;;;34.63;22.65;;;;;;;5.12;100.00;101347.84;5029072;28;20028;-69
2021/11/13 07:54:20;;;;;;;29.80;22.48;;;;;;;5.07;100.00;101323.59;5021602;28;20128;-70
2021/11/13 07:56:46;;;;;;;35.75;23.95;;;;;;;4.91;100.00;101283.19;5020519;28;20468;-68
2021/11/13 07:59:13;;;;;;;32.33;23.10;;;;;;;5.35;100.00;101346.97;5022308;28;20468;-68
2021/11/13 08:01:40;;;;;;;32.25;21.42;;;;;;;5.49;100.00;101347.94;5020130;28;20026;-70
2021/11/13 08:04:05;;;;;;;27.23;20.00;;;;;;;5.45;100.00;101351.06;4995179;28;20143;-69
2021/11/13 08:06:30;;;;;;;34.83;23.63;;;;;;;5.17;100.00;101278.28;5022173;28;20483;-70
2021/11/13 08:08:56;;;;;;;31.45;21.70;;;;;;;5.55;100.00;101325.34;5020648;28;20032;-70
2021/11/13 08:11:22;;;;;;;25.65;19.05;;;;;;;5.78;100.00;101341.44;5020617;28;20113;-69
2021/11/13 08:13:48;;;;;;;27.05;19.95;;;;;;;5.87;100.00;101342.09;5024347;28;20103;-70
2021/11/13 08:16:14;;;;;;;25.00;17.65;;;;;;;5.86;100.00;101332.63;5027068;28;20057;-68
2021/11/13 08:18:39;;;;;;;24.35;16.90;;;;;;;6.04;100.00;101340.72;5020078;28;20399;-69
2021/11/13 08:21:05;;;;;;;23.33;18.42;;;;;;;6.16;100.00;101350.94;5002363;28;20045;-70
2021/11/13 08:23:31;;;;;;;30.63;23.13;;;;;;;6.20;100.00;101345.22;5033509;28;20037;-70
2021/11/13 08:25:59;;;;;;;47.30;36.85;;;;;;;6.23;100.00;101349.69;5024067;28;20022;-70
2021/11/13 08:28:25;;;;;;;37.22;27.90;;;;;;;6.04;100.00;101319.34;5029213;28;20033;-70
2021/11/13 08:30:52;;;;;;;41.05;28.60;;;;;;;6.24;100.00;101354.03;5032579;28;20029;-70
2021/11/13 08:33:19;;;;;;;21.48;16.48;;;;;;;6.10;100.00;101341.13;5028433;28;20033;-70
2021/11/13 08:35:46;;;;;;;22.67;16.02;;;;;;;6.31;100.00;101357.13;5027164;28;20029;-70
2021/11/13 08:38:17;;;;;;;21.42;15.52;;;;;;;6.27;100.00;101336.31;5032730;28;20057;-70
2021/11/13 08:40:43;;;;;;;22.60;16.77;;;;;;;6.38;100.00;101348.19;5035215;28;20040;-71
2021/11/13 08:43:09;;;;;;;23.90;18.63;;;;;;;6.50;100.00;101362.63;5034692;28;20037;-70
2021/11/13 08:45:35;;;;;;;27.10;18.60;;;;;;;5.99;100.00;101271.22;5035123;28;20033;-70
2021/11/13 08:48:01;;;;;;;24.55;17.70;;;;;;;6.50;100.00;101347.22;5034957;28;20087;-70
2021/11/13 08:50:29;;;;;;;21.98;17.13;;;;;;;6.64;100.00;101352.50;5035140;28;20443;-69
2021/11/13 08:52:58;;;;;;;25.65;18.30;;;;;;;6.72;100.00;101342.75;5035173;28;20083;-69
2021/11/13 08:55:27;;;;;;;28.27;18.83;;;;;;;6.65;100.00;101350.81;5034947;28;20029;-70
2021/11/13 08:57:53;;;;;;;22.43;17.80;;;;;;;6.63;100.00;101350.72;5033690;28;20029;-70
2021/11/13 09:00:25;;;;;;;23.85;18.30;;;;;;;6.72;100.00;101352.13;5034687;28;20415;-70
2021/11/13 09:02:52;;;;;;;26.55;17.70;;;;;;;6.77;100.00;101354.19;5034715;28;20026;-70
2021/11/13 09:05:17;;;;;;;22.45;16.13;;;;;;;6.89;100.00;101343.88;5034640;28;20056;-72
2021/11/13 09:07:43;;;;;;;25.50;16.58;;;;;;;6.91;100.00;101342.28;5034690;28;20484;-71
2021/11/13 09:10:09;;;;;;;30.83;19.85;;;;;;;7.00;100.00;101335.97;5034536;28;20026;-71
2021/11/13 09:12:36;;;;;;;21.70;15.20;;;;;;;6.89;100.00;101300.22;5034860;28;20029;-71
2021/11/13 09:15:08;;;;;;;17.90;11.98;;;;;;;7.16;100.00;101338.75;5034310;28;20032;-70
2021/11/13 09:17:33;;;;;;;16.33;11.93;;;;;;;7.21;100.00;101339.91;5034798;28;20512;-70
2021/11/13 09:19:59;;;;;;;24.80;19.60;;;;;;;7.15;100.00;101315.53;5034539;28;20080;-71
2021/11/13 09:22:26;;;;;;;19.33;13.93;;;;;;;7.29;100.00;101328.47;5034429;28;20480;-71
2021/11/13 09:24:51;;;;;;;15.48;11.20;;;;;;;7.33;100.00;101316.72;5034520;28;20112;-71
2021/11/13 09:27:17;;;;;;;20.00;13.40;;;;;;;7.35;100.00;101319.38;5034369;28;20515;-70
2021/11/13 09:29:42;;;;;;;16.98;13.48;;;;;;;7.43;100.00;101325.91;5033977;28;20104;-71
2021/11/13 09:32:08;;;;;;;16.52;12.73;;;;;;;7.49;100.00;101315.09;5034210;28;20484;-71
2021/11/13 09:34:34;;;;;;;20.33;11.75;;;;;;;7.45;100.00;101299.50;5034543;28;20101;-70
2021/11/13 09:36:59;;;;;;;15.80;12.52;;;;;;;7.52;100.00;101305.91;5034165;28;20056;-70
2021/11/13 09:39:25;;;;;;;19.88;12.50;;;;;;;7.61;100.00;101314.22;5034090;28;20527;-70
2021/11/13 09:41:51;;;;;;;17.98;11.25;;;;;;;7.60;100.00;101297.00;5033949;28;20018;-71
2021/11/13 09:44:20;;;;;;;11.65;9.02;;;;;;;7.67;100.00;101312.81;5034061;28;20025;-71
2021/11/13 09:46:47;;;;;;;12.30;10.20;;;;;;;7.60;100.00;101296.09;5034104;28;20111;-71
2021/11/13 09:49:15;;;;;;;14.20;11.05;;;;;;;7.61;100.00;101285.94;5033921;28;20021;-71
2021/11/13 09:51:41;;;;;;;15.10;12.23;;;;;;;7.66;100.00;101280.19;5034138;28;20021;-71
2021/11/13 09:54:07;;;;;;;14.32;11.30;;;;;;;7.78;100.00;101298.94;5033951;28;20033;-70
2021/11/13 09:56:32;;;;;;;14.85;11.70;;;;;;;7.76;100.00;101287.66;5033805;28;20404;-71
2021/11/13 09:58:58;;;;;;;48.30;31.67;;;;;;;7.80;100.00;101289.66;5033514;28;20033;-70
2021/11/13 10:01:24;;;;;;;14.98;11.90;;;;;;;7.88;100.00;101288.41;5033737;28;20041;-70
2021/11/13 10:03:50;;;;;;;13.07;11.05;;;;;;;7.96;100.00;101288.88;5033749;28;20458;-71
2021/11/13 10:06:17;;;;;;;13.23;11.20;;;;;;;7.88;100.00;101283.28;5033368;28;20415;-70
2021/11/13 10:08:44;;;;;;;11.50;10.07;;;;;;;7.86;100.00;101264.31;5033518;28;20112;-71
2021/11/13 10:11:16;;;;;;;16.15;11.25;;;;;;;7.63;100.00;101223.44;5033403;28;20105;-71
2021/11/13 10:13:48;;;;;;;20.77;17.50;;;;;;;7.93;100.00;101269.00;5033208;28;20479;-71
2021/11/13 10:16:20;;;;;;;13.48;10.90;;;;;;;8.07;100.00;101276.69;5033636;28;20025;-69
2021/11/13 10:18:52;;;;;;;14.80;10.55;;;;;;;8.01;100.00;101259.22;5033219;28;20549;-70
2021/11/13 10:21:24;;;;;;;14.52;10.80;;;;;;;8.07;100.00;101279.25;5031995;28;20053;-70
2021/11/13 10:23:52;;;;;;;12.82;9.75;;;;;;;7.76;99.55;101205.41;5033360;28;20025;-70
2021/11/13 10:26:31;;;;;;;11.00;8.43;;;;;;;7.79;100.00;101200.47;5033063;28;20108;-70
2021/11/13 10:29:21;;;;;;;17.15;12.32;;;;;;;8.15;99.29;101252.31;5033243;28;20033;-70
2021/11/13 10:32:08;;;;;;;14.25;11.75;;;;;;;8.16;100.00;101256.66;5032763;28;20041;-70
2021/11/13 10:34:42;;;;;;;12.93;11.02;;;;;;;8.24;100.00;101251.97;5033061;28;20029;-70
2021/11/13 10:37:23;;;;;;;15.38;10.80;;;;;;;8.22;100.00;101244.19;5031766;28;20025;-70
2021/11/13 10:39:50;;;;;;;11.38;9.45;;;;;;;8.25;99.96;101243.47;5033010;28;20100;-70
2021/11/13 10:42:19;;;;;;;14.48;10.57;;;;;;;7.59;99.37;101161.59;5033118;28;20041;-70
2021/11/13 10:44:58;;;;;;;14.63;10.18;;;;;;;8.10;100.00;101234.03;5032408;28;20087;-70
2021/11/13 10:47:36;;;;;;;16.77;12.20;;;;;;;8.30;100.00;101236.00;5032739;28;20431;-72
2021/11/13 10:50:24;;;;;;;13.88;10.98;;;;;;;8.45;98.85;101242.06;5032968;28;20060;-71
2021/11/13 10:53:12;;;;;;;13.27;10.80;;;;;;;8.49;98.85;101233.72;5032681;28;20022;-70
2021/11/13 10:55:40;;;;;;;14.57;10.02;;;;;;;8.57;99.00;101232.50;5032648;28;20025;-69
2021/11/13 10:58:29;;;;;;;12.02;9.68;;;;;;;8.69;98.45;101231.41;5032570;28;20031;-70
2021/11/13 11:00:57;;;;;;;14.73;8.95;;;;;;;8.78;96.58;101231.94;5032338;28;20025;-71
2021/11/13 11:03:54;;;;;;;12.48;9.52;;;;;;;8.50;96.74;101178.91;5032613;28;20125;-70
2021/11/13 11:06:46;;;;;;;10.95;9.43;;;;;;;8.82;95.94;101225.25;4971372;28;20106;-69
2021/11/13 11:11:40;;;;;;;13.57;9.43;;;;;;;9.05;95.89;101217.13;5021230;28;20271;-71